createdAt,value
2023-02-15T00:00:11.723Z,5.10
2023-02-15T00:03:56.526Z,5.13
2023-02-15T00:07:00.492Z,5.15
2023-02-15T00:10:05.566Z,5.16
2023-02-15T00:13:09.520Z,5.12
2023-02-15T00:16:14.302Z,5.10
2023-02-15T00:19:20.525Z,5.08
2023-02-15T00:22:24.467Z,5.06
2023-02-15T00:25:28.396Z,5.04
2023-02-15T00:28:32.672Z,5.06
2023-02-15T00:31:37.489Z,5.10
2023-02-15T00:34:41.565Z,5.12
2023-02-15T00:37:45.536Z,5.14
2023-02-15T00:40:57.141Z,5.13
2023-02-15T00:44:01.543Z,5.10
2023-02-15T00:47:07.109Z,5.05
2023-02-15T00:50:11.583Z,5.01
2023-02-15T00:53:15.831Z,4.99
2023-02-15T00:56:20.187Z,5.02
2023-02-15T00:59:24.192Z,5.06
2023-02-15T01:02:29.437Z,5.10
2023-02-15T01:05:34.274Z,5.15
2023-02-15T01:08:38.296Z,5.16
2023-02-15T01:11:42.230Z,5.16
2023-02-15T01:14:46.220Z,5.13
2023-02-15T01:17:53.720Z,5.09
2023-02-15T01:20:59.061Z,5.05
2023-02-15T01:24:03.292Z,5.01
2023-02-15T01:27:07.224Z,5.01
2023-02-15T01:30:12.174Z,5.03
2023-02-15T01:33:19.048Z,5.05
2023-02-15T01:36:23.649Z,5.08
2023-02-15T01:39:29.405Z,5.10
2023-02-15T01:42:34.497Z,5.09
2023-02-15T01:45:39.678Z,5.08
2023-02-15T01:48:50.302Z,5.06
2023-02-15T01:51:54.581Z,5.03
2023-02-15T01:55:03.628Z,5.00
2023-02-15T01:58:08.743Z,5.01
2023-02-15T02:01:12.789Z,5.03
2023-02-15T02:04:29.441Z,5.05
2023-02-15T02:07:39.553Z,5.07
2023-02-15T02:10:43.657Z,5.06
2023-02-15T02:13:48.266Z,5.06
2023-02-15T02:17:12.991Z,5.06
2023-02-15T02:20:33.720Z,5.06
2023-02-15T02:24:04.031Z,5.05
2023-02-15T02:27:42.655Z,5.01
2023-02-15T02:31:03.974Z,5.01
2023-02-15T02:34:49.287Z,5.02
2023-02-15T02:38:09.767Z,5.07
2023-02-15T02:41:40.097Z,5.09
2023-02-15T02:44:45.758Z,5.10
2023-02-15T02:48:07.172Z,5.09
2023-02-15T02:51:11.085Z,5.06
2023-02-15T02:54:15.006Z,5.04
2023-02-15T02:57:21.129Z,5.03
2023-02-15T03:00:28.049Z,4.97
2023-02-15T03:03:38.927Z,4.98
2023-02-15T03:07:23.801Z,4.99
2023-02-15T03:10:30.590Z,5.01
2023-02-15T03:13:35.624Z,5.04
2023-02-15T03:16:42.888Z,5.02
2023-02-15T03:19:51.338Z,4.98
2023-02-15T03:23:18.073Z,4.95
2023-02-15T03:26:24.766Z,4.91
2023-02-15T03:29:31.339Z,4.92
2023-02-15T03:32:38.429Z,4.95
2023-02-15T03:35:51.255Z,5.00
2023-02-15T03:39:19.846Z,5.03
2023-02-15T03:42:29.902Z,5.04
2023-02-15T03:45:35.168Z,5.05
2023-02-15T03:48:47.762Z,5.05
2023-02-15T03:51:55.370Z,5.03
2023-02-15T03:55:00.091Z,5.00
2023-02-15T03:58:23.399Z,4.99
2023-02-15T04:01:58.202Z,5.02
2023-02-15T04:05:02.146Z,5.04
2023-02-15T04:08:06.534Z,5.06
2023-02-15T04:11:10.550Z,5.08
2023-02-15T04:14:33.307Z,5.06
2023-02-15T04:17:38.762Z,4.99
2023-02-15T04:21:05.604Z,4.96
2023-02-15T04:24:29.101Z,4.94
2023-02-15T04:27:33.058Z,4.94
2023-02-15T04:30:37.002Z,4.95
2023-02-15T04:33:41.036Z,4.96
2023-02-15T04:36:45.563Z,4.96
2023-02-15T04:39:50.896Z,4.96
2023-02-15T04:42:54.909Z,4.95
2023-02-15T04:46:00.171Z,4.90
2023-02-15T04:49:05.111Z,4.83
2023-02-15T04:52:09.383Z,4.78
2023-02-15T04:55:13.636Z,4.78
2023-02-15T04:58:17.655Z,4.80
2023-02-15T05:01:21.773Z,4.77
2023-02-15T05:04:25.895Z,4.80
2023-02-15T05:07:29.902Z,4.80
2023-02-15T05:10:33.808Z,4.79
2023-02-15T05:13:37.828Z,4.78
2023-02-15T05:16:41.937Z,4.74
2023-02-15T05:19:45.960Z,4.66
2023-02-15T05:22:49.976Z,4.65
2023-02-15T05:26:12.422Z,4.68
2023-02-15T05:29:16.239Z,4.72
2023-02-15T05:32:20.506Z,4.74
2023-02-15T05:35:24.710Z,4.74
2023-02-15T05:38:29.123Z,4.72
2023-02-15T05:41:33.110Z,4.67
2023-02-15T05:44:37.087Z,4.62
2023-02-15T05:47:41.019Z,4.58
2023-02-15T05:50:45.588Z,4.56
2023-02-15T05:53:49.548Z,4.55
2023-02-15T05:56:53.614Z,4.57
2023-02-15T05:59:58.073Z,4.59
2023-02-15T06:03:02.815Z,4.58
2023-02-15T06:06:08.097Z,4.57
2023-02-15T06:09:13.789Z,4.52
2023-02-15T06:12:17.750Z,4.44
2023-02-15T06:15:22.016Z,4.38
2023-02-15T06:18:26.418Z,4.36
2023-02-15T06:21:31.567Z,4.37
2023-02-15T06:24:35.633Z,4.40
2023-02-15T06:27:42.973Z,4.43
2023-02-15T06:30:47.841Z,4.46
2023-02-15T06:33:51.848Z,4.46
2023-02-15T06:36:55.956Z,4.45
2023-02-15T06:40:01.895Z,4.43
2023-02-15T06:43:07.677Z,4.40
2023-02-15T06:46:11.917Z,4.37
2023-02-15T06:49:15.987Z,4.38
2023-02-15T06:52:20.030Z,4.39
2023-02-15T06:55:24.048Z,4.37
2023-02-15T06:58:28.057Z,4.39
2023-02-15T07:01:32.259Z,4.40
2023-02-15T07:04:36.479Z,4.40
2023-02-15T07:07:40.476Z,4.38
2023-02-15T07:10:45.265Z,4.36
2023-02-15T07:13:49.272Z,4.37
2023-02-15T07:16:53.468Z,4.39
2023-02-15T07:19:57.503Z,4.36
2023-02-15T07:23:01.456Z,4.32
2023-02-15T07:26:06.723Z,4.33
2023-02-15T07:29:10.770Z,4.35
2023-02-15T07:32:14.841Z,4.34
2023-02-15T07:35:19.008Z,4.29
2023-02-15T07:38:22.966Z,4.22
2023-02-15T07:41:27.095Z,4.18
2023-02-15T07:44:31.849Z,4.16
2023-02-15T07:47:35.786Z,4.16
2023-02-15T07:50:39.912Z,4.16
2023-02-15T07:53:44.222Z,4.15
2023-02-15T07:56:48.276Z,4.16
2023-02-15T07:59:52.253Z,4.15
2023-02-15T08:03:15.416Z,4.13
2023-02-15T08:06:20.046Z,4.14
2023-02-15T08:09:24.068Z,4.10
2023-02-15T08:12:28.495Z,4.10
2023-02-15T08:15:32.629Z,4.11
2023-02-15T08:18:36.814Z,4.13
2023-02-15T08:21:44.011Z,4.16
2023-02-15T08:24:47.975Z,4.16
2023-02-15T08:27:52.056Z,4.15
2023-02-15T08:30:56.137Z,4.15
2023-02-15T08:34:00.792Z,4.11
2023-02-15T08:37:05.114Z,4.08
2023-02-15T08:40:09.836Z,4.11
2023-02-15T08:43:13.870Z,4.14
2023-02-15T08:46:20.564Z,4.18
2023-02-15T08:49:25.082Z,4.21
2023-02-15T08:52:29.100Z,4.22
2023-02-15T08:55:33.118Z,4.19
2023-02-15T08:58:38.221Z,4.17
2023-02-15T09:01:42.478Z,4.14
2023-02-15T09:04:47.082Z,4.15
2023-02-15T09:07:51.002Z,4.17
2023-02-15T09:10:55.832Z,4.19
2023-02-15T09:14:02.643Z,4.23
2023-02-15T09:17:07.075Z,4.29
2023-02-15T09:20:11.382Z,4.34
2023-02-15T09:23:26.918Z,4.37
2023-02-15T09:26:33.854Z,4.38
2023-02-15T09:29:37.952Z,4.37
2023-02-15T09:32:42.420Z,4.35
2023-02-15T09:35:46.843Z,4.35
2023-02-15T09:39:16.759Z,4.37
2023-02-15T09:42:44.685Z,4.44
2023-02-15T09:46:10.378Z,4.48
2023-02-15T09:49:24.107Z,4.44
2023-02-15T09:52:54.841Z,4.45
2023-02-15T09:56:21.170Z,4.47
2023-02-15T09:59:28.056Z,4.44
2023-02-15T10:02:47.132Z,4.42
2023-02-15T10:06:11.722Z,4.45
2023-02-15T10:09:28.795Z,4.48
2023-02-15T10:13:05.130Z,4.51
2023-02-15T10:16:41.325Z,4.54
2023-02-15T10:20:19.177Z,4.49
2023-02-15T10:23:57.325Z,4.51
2023-02-15T10:27:17.425Z,4.48
2023-02-15T10:30:32.858Z,4.49
2023-02-15T10:33:42.684Z,4.50
2023-02-15T10:36:59.133Z,4.53
2023-02-15T10:40:24.874Z,4.55
2023-02-15T10:43:40.761Z,4.58
2023-02-15T10:47:06.600Z,4.61
2023-02-15T10:50:48.609Z,4.63
2023-02-15T10:54:05.301Z,4.63
2023-02-15T10:57:21.727Z,4.60
2023-02-15T11:00:34.045Z,4.57
2023-02-15T11:03:37.945Z,4.60
2023-02-15T11:06:49.445Z,4.64
2023-02-15T11:10:06.553Z,4.68
2023-02-15T11:13:15.902Z,4.71
2023-02-15T11:16:29.133Z,4.73
2023-02-15T11:19:37.128Z,4.69
2023-02-15T11:22:41.529Z,4.67
2023-02-15T11:25:57.160Z,4.67
2023-02-15T11:29:26.339Z,4.65
2023-02-15T11:32:35.702Z,4.63
2023-02-15T11:35:50.646Z,4.59
2023-02-15T11:39:09.932Z,4.58
2023-02-15T11:42:17.878Z,4.62
2023-02-15T11:45:37.845Z,4.70
2023-02-15T11:48:43.379Z,4.75
2023-02-15T11:51:47.814Z,4.75
2023-02-15T11:54:53.681Z,4.69
2023-02-15T11:58:09.793Z,4.66
2023-02-15T12:01:30.125Z,4.63
2023-02-15T12:04:42.247Z,4.62
2023-02-15T12:07:55.386Z,4.65
2023-02-15T12:11:08.327Z,4.70
2023-02-15T12:14:17.572Z,4.72
2023-02-15T12:17:25.385Z,4.72
2023-02-15T12:20:33.198Z,4.67
2023-02-15T12:23:48.151Z,4.59
2023-02-15T12:27:22.769Z,4.56
2023-02-15T12:30:32.090Z,4.56
2023-02-15T12:33:46.727Z,4.59
2023-02-15T12:36:59.254Z,4.63
2023-02-15T12:40:31.301Z,4.65
2023-02-15T12:43:39.712Z,4.69
2023-02-15T12:46:57.736Z,4.73
2023-02-15T12:50:24.396Z,4.73
2023-02-15T12:53:34.836Z,4.73
2023-02-15T12:56:38.776Z,4.72
2023-02-15T13:00:10.132Z,4.68
2023-02-15T13:03:25.116Z,4.69
2023-02-15T13:06:32.707Z,4.71
2023-02-15T13:09:40.915Z,4.74
2023-02-15T13:12:47.912Z,4.77
2023-02-15T13:15:55.318Z,4.79
2023-02-15T13:19:06.691Z,4.78
2023-02-15T13:22:45.512Z,4.71
2023-02-15T13:25:51.796Z,4.65
2023-02-15T13:29:06.557Z,4.64
2023-02-15T13:32:41.901Z,4.66
2023-02-15T13:36:05.494Z,4.73
2023-02-15T13:39:40.673Z,4.73
2023-02-15T13:42:57.249Z,4.66
2023-02-15T13:46:28.251Z,4.61
2023-02-15T13:49:48.803Z,4.57
2023-02-15T13:53:09.617Z,4.59
2023-02-15T13:56:22.319Z,4.57
2023-02-15T13:59:43.523Z,4.52
2023-02-15T14:03:26.799Z,4.50
2023-02-15T14:06:47.815Z,4.54
2023-02-15T14:10:13.220Z,4.50
2023-02-15T14:13:29.128Z,4.46
2023-02-15T14:16:42.352Z,4.48
2023-02-15T14:20:16.251Z,4.46
2023-02-15T14:23:32.338Z,4.43
2023-02-15T14:26:48.652Z,4.33
2023-02-15T14:30:01.680Z,4.31
2023-02-15T14:33:08.464Z,4.34
2023-02-15T14:36:20.457Z,4.39
2023-02-15T14:39:55.608Z,4.38
2023-02-15T14:43:02.720Z,4.37
2023-02-15T14:46:31.232Z,4.35
2023-02-15T14:49:38.994Z,4.34
2023-02-15T14:53:21.117Z,4.32
2023-02-15T14:56:27.481Z,4.31
2023-02-15T14:59:46.956Z,4.32
2023-02-15T15:02:52.675Z,4.35
2023-02-15T15:06:02.310Z,4.39
2023-02-15T15:09:22.966Z,4.38
2023-02-15T15:12:26.871Z,4.38
2023-02-15T15:15:30.836Z,4.38
2023-02-15T15:18:49.561Z,4.36
2023-02-15T15:21:54.487Z,4.34
2023-02-15T15:25:05.066Z,4.33
2023-02-15T15:28:09.085Z,4.32
2023-02-15T15:31:31.622Z,4.29
2023-02-15T15:35:14.956Z,4.20
2023-02-15T15:38:59.626Z,4.12
2023-02-15T15:42:12.555Z,4.09
2023-02-15T15:45:19.231Z,4.06
2023-02-15T15:48:34.634Z,4.04
2023-02-15T15:51:43.125Z,4.03
2023-02-15T15:54:56.570Z,4.06
2023-02-15T15:58:05.986Z,4.09
2023-02-15T16:01:15.831Z,4.14
2023-02-15T16:04:31.982Z,4.19
2023-02-15T16:07:35.945Z,4.22
2023-02-15T16:10:41.516Z,4.20
2023-02-15T16:13:45.924Z,4.17
2023-02-15T16:16:54.568Z,4.15
2023-02-15T16:20:15.394Z,4.12
2023-02-15T16:23:37.495Z,4.09
2023-02-15T16:26:44.420Z,4.12
2023-02-15T16:29:48.376Z,4.17
2023-02-15T16:33:05.440Z,4.22
2023-02-15T16:36:20.836Z,4.24
2023-02-15T16:39:24.851Z,4.24
2023-02-15T16:42:29.078Z,4.21
2023-02-15T16:45:34.005Z,4.14
2023-02-15T16:48:44.146Z,4.07
2023-02-15T16:52:03.137Z,4.01
2023-02-15T16:55:07.562Z,3.93
2023-02-15T16:58:21.687Z,3.90
2023-02-15T17:01:29.914Z,3.90
2023-02-15T17:04:35.617Z,3.91
2023-02-15T17:07:41.884Z,3.87
2023-02-15T17:10:59.957Z,3.86
2023-02-15T17:14:07.763Z,3.80
2023-02-15T17:17:16.222Z,3.71
2023-02-15T17:20:22.303Z,3.68
2023-02-15T17:23:41.565Z,3.70
2023-02-15T17:26:52.020Z,3.75
2023-02-15T17:29:59.167Z,3.77
2023-02-15T17:33:05.487Z,3.82
2023-02-15T17:36:23.703Z,3.85
2023-02-15T17:39:27.756Z,3.81
2023-02-15T17:42:31.685Z,3.74
2023-02-15T17:45:41.554Z,3.71
2023-02-15T17:48:48.882Z,3.74
2023-02-15T17:51:52.933Z,3.78
2023-02-15T17:55:15.311Z,3.83
2023-02-15T17:58:20.716Z,3.82
2023-02-15T18:01:43.485Z,3.77
2023-02-15T18:05:05.917Z,3.76
2023-02-15T18:08:45.273Z,3.76
2023-02-15T18:11:50.717Z,3.75
2023-02-15T18:14:56.398Z,3.72
2023-02-15T18:18:00.400Z,3.73
2023-02-15T18:21:05.162Z,3.77
2023-02-15T18:24:26.976Z,3.80
2023-02-15T18:27:30.933Z,3.84
2023-02-15T18:30:35.077Z,3.89
2023-02-15T18:33:45.204Z,3.93
2023-02-15T18:36:49.785Z,3.94
2023-02-15T18:39:54.549Z,3.94
2023-02-15T18:42:58.574Z,3.93
2023-02-15T18:46:02.560Z,3.88
2023-02-15T18:49:06.658Z,3.85
2023-02-15T18:52:19.303Z,3.85
2023-02-15T18:55:25.978Z,3.87
2023-02-15T18:58:30.171Z,3.89
2023-02-15T19:01:34.102Z,3.88
2023-02-15T19:04:38.129Z,3.84
2023-02-15T19:07:45.348Z,3.75
2023-02-15T19:10:49.515Z,3.65
2023-02-15T19:13:53.492Z,3.56
2023-02-15T19:16:59.294Z,3.47
2023-02-15T19:20:03.383Z,3.42
2023-02-15T19:23:19.573Z,3.35
2023-02-15T19:26:28.745Z,3.28
2023-02-15T19:29:40.206Z,3.24
2023-02-15T19:32:45.739Z,3.17
2023-02-15T19:35:55.631Z,3.10
2023-02-15T19:38:59.598Z,3.02
2023-02-15T19:42:03.773Z,2.98
2023-02-15T19:45:18.953Z,2.93
2023-02-15T19:48:23.176Z,2.85
2023-02-15T19:51:27.906Z,2.78
2023-02-15T19:54:35.014Z,2.76
2023-02-15T19:57:39.120Z,2.75
2023-02-15T20:00:43.229Z,2.76
2023-02-15T20:03:47.240Z,2.74
2023-02-15T20:06:54.725Z,2.67
2023-02-15T20:09:58.645Z,2.56
2023-02-15T20:13:03.187Z,2.47
2023-02-15T20:16:08.531Z,2.39
2023-02-15T20:19:13.367Z,2.34
2023-02-15T20:22:28.942Z,2.26
2023-02-15T20:25:34.313Z,2.14
2023-02-15T20:28:38.327Z,2.06
2023-02-15T20:31:43.134Z,2.00
2023-02-15T20:34:47.964Z,1.98
2023-02-15T20:37:54.622Z,1.99
2023-02-15T20:41:19.655Z,1.98
2023-02-15T20:44:31.493Z,1.94
2023-02-15T20:47:35.679Z,1.86
2023-02-15T20:50:39.669Z,1.81
2023-02-15T20:53:43.723Z,1.76
2023-02-15T20:56:48.344Z,1.69
2023-02-15T20:59:52.469Z,1.62
2023-02-15T21:03:01.145Z,1.58
2023-02-15T21:06:05.724Z,1.58
2023-02-15T21:09:14.854Z,1.60
2023-02-15T21:12:21.109Z,1.59
2023-02-15T21:15:27.811Z,1.54
2023-02-15T21:18:34.166Z,1.48
2023-02-15T21:21:38.106Z,1.43
2023-02-15T21:24:51.038Z,1.39
2023-02-15T21:27:55.139Z,1.34
2023-02-15T21:30:59.894Z,1.26
2023-02-15T21:34:04.194Z,1.20
2023-02-15T21:37:27.549Z,1.20
2023-02-15T21:40:32.795Z,1.22
2023-02-15T21:43:55.354Z,1.26
2023-02-15T21:47:17.758Z,1.29
2023-02-15T21:50:43.324Z,1.27
2023-02-15T21:53:47.546Z,1.26
2023-02-15T21:56:54.041Z,1.22
2023-02-15T21:59:58.130Z,1.19
2023-02-15T22:03:02.464Z,1.12
2023-02-15T22:06:06.575Z,1.07
2023-02-15T22:09:16.820Z,1.04
2023-02-15T22:12:22.076Z,1.02
2023-02-15T22:15:29.331Z,1.02
2023-02-15T22:18:34.874Z,1.02
2023-02-15T22:21:38.772Z,1.02
2023-02-15T22:24:43.468Z,1.01
2023-02-15T22:27:49.994Z,1.01
2023-02-15T22:30:54.057Z,0.99
2023-02-15T22:33:57.973Z,0.94
2023-02-15T22:37:03.252Z,0.86
2023-02-15T22:40:08.092Z,0.82
2023-02-15T22:43:34.589Z,0.84
2023-02-15T22:46:40.721Z,0.87
2023-02-15T22:49:44.673Z,0.91
2023-02-15T22:52:49.706Z,0.92
2023-02-15T22:55:55.492Z,0.88
2023-02-15T22:59:02.671Z,0.85
2023-02-15T23:02:13.380Z,0.83
2023-02-15T23:05:30.193Z,0.81
2023-02-15T23:08:34.262Z,0.77
2023-02-15T23:11:38.481Z,0.75
2023-02-15T23:14:42.519Z,0.73
2023-02-15T23:17:46.437Z,0.72
2023-02-15T23:20:56.875Z,0.73
2023-02-15T23:24:23.795Z,0.73
2023-02-15T23:27:46.082Z,0.71
2023-02-15T23:30:50.319Z,0.69
2023-02-15T23:33:55.039Z,0.65
2023-02-15T23:36:58.944Z,0.56
2023-02-15T23:40:22.073Z,0.51
2023-02-15T23:43:25.961Z,0.51
2023-02-15T23:46:44.907Z,0.50
2023-02-15T23:49:48.901Z,0.51
2023-02-15T23:52:54.246Z,0.55
2023-02-15T23:55:59.350Z,0.54
2023-02-15T23:59:04.198Z,0.53
